sensor_id;sensor_type;location;lat;lon;timestamp;P1;durP1;ratioP1;P2;durP2;ratioP2
20454;SDS011;10386;54.314;10.022;2023-03-31T00:00:16;45.53;;;9.93;;
20454;SDS011;10386;54.314;10.022;2023-03-31T00:02:44;51.73;;;9.33;;
20454;SDS011;10386;54.314;10.022;2023-03-31T00:05:11;59.50;;;9.60;;
20454;SDS011;10386;54.314;10.022;2023-03-31T00:07:43;37.50;;;9.10;;
20454;SDS011;10386;54.314;10.022;2023-03-31T00:10:11;49.13;;;9.73;;
20454;SDS011;10386;54.314;10.022;2023-03-31T00:12:44;44.17;;;7.97;;
20454;SDS011;10386;54.314;10.022;2023-03-31T00:15:11;46.37;;;8.57;;
20454;SDS011;10386;54.314;10.022;2023-03-31T00:17:38;44.97;;;7.63;;
20454;SDS011;10386;54.314;10.022;2023-03-31T00:20:05;43.73;;;8.40;;
20454;SDS011;10386;54.314;10.022;2023-03-31T00:22:38;38.07;;;7.93;;
20454;SDS011;10386;54.314;10.022;2023-03-31T00:25:11;49.37;;;8.20;;
20454;SDS011;10386;54.314;10.022;2023-03-31T00:27:42;43.73;;;8.30;;
20454;SDS011;10386;54.314;10.022;2023-03-31T00:30:14;46.93;;;8.07;;
20454;SDS011;10386;54.314;10.022;2023-03-31T00:32:41;40.57;;;8.00;;
20454;SDS011;10386;54.314;10.022;2023-03-31T00:35:08;42.23;;;7.17;;
20454;SDS011;10386;54.314;10.022;2023-03-31T00:37:35;35.40;;;7.57;;
20454;SDS011;10386;54.314;10.022;2023-03-31T00:40:02;34.53;;;7.13;;
20454;SDS011;10386;54.314;10.022;2023-03-31T00:42:41;34.60;;;6.93;;
20454;SDS011;10386;54.314;10.022;2023-03-31T00:47:43;30.23;;;6.77;;
20454;SDS011;10386;54.314;10.022;2023-03-31T00:50:20;32.60;;;7.20;;
20454;SDS011;10386;54.314;10.022;2023-03-31T00:52:50;29.07;;;5.97;;
20454;SDS011;10386;54.314;10.022;2023-03-31T00:55:22;30.60;;;6.10;;
20454;SDS011;10386;54.314;10.022;2023-03-31T00:57:56;22.87;;;5.70;;
20454;SDS011;10386;54.314;10.022;2023-03-31T01:00:23;33.17;;;6.70;;
20454;SDS011;10386;54.314;10.022;2023-03-31T01:02:51;30.83;;;6.23;;
20454;SDS011;10386;54.314;10.022;2023-03-31T01:05:22;20.00;;;6.03;;
20454;SDS011;10386;54.314;10.022;2023-03-31T01:07:53;26.97;;;6.30;;
20454;SDS011;10386;54.314;10.022;2023-03-31T01:10:21;22.43;;;6.73;;
20454;SDS011;10386;54.314;10.022;2023-03-31T01:12:49;33.10;;;6.90;;
20454;SDS011;10386;54.314;10.022;2023-03-31T01:15:19;37.53;;;7.33;;
20454;SDS011;10386;54.314;10.022;2023-03-31T01:17:47;29.83;;;7.87;;
20454;SDS011;10386;54.314;10.022;2023-03-31T01:40:04;32.97;;;8.50;;
20454;SDS011;10386;54.314;10.022;2023-03-31T01:45:22;31.30;;;8.03;;
20454;SDS011;10386;54.314;10.022;2023-03-31T01:47:55;30.47;;;7.80;;
20454;SDS011;10386;54.314;10.022;2023-03-31T01:55:37;39.63;;;8.60;;
20454;SDS011;10386;54.314;10.022;2023-03-31T01:58:10;38.87;;;9.00;;
20454;SDS011;10386;54.314;10.022;2023-03-31T02:00:44;42.20;;;9.43;;
20454;SDS011;10386;54.314;10.022;2023-03-31T02:03:26;43.77;;;9.07;;
20454;SDS011;10386;54.314;10.022;2023-03-31T02:06:12;29.80;;;7.23;;
20454;SDS011;10386;54.314;10.022;2023-03-31T02:08:48;41.57;;;8.27;;
20454;SDS011;10386;54.314;10.022;2023-03-31T02:11:20;32.40;;;8.97;;
20454;SDS011;10386;54.314;10.022;2023-03-31T02:13:48;42.90;;;9.20;;
20454;SDS011;10386;54.314;10.022;2023-03-31T02:16:19;43.33;;;9.43;;
20454;SDS011;10386;54.314;10.022;2023-03-31T02:18:52;40.27;;;8.23;;
20454;SDS011;10386;54.314;10.022;2023-03-31T02:21:28;33.47;;;9.03;;
20454;SDS011;10386;54.314;10.022;2023-03-31T02:24:03;31.63;;;8.00;;
20454;SDS011;10386;54.314;10.022;2023-03-31T02:26:39;31.13;;;7.07;;
20454;SDS011;10386;54.314;10.022;2023-03-31T02:29:22;31.73;;;8.30;;
20454;SDS011;10386;54.314;10.022;2023-03-31T02:31:55;38.10;;;7.73;;
20454;SDS011;10386;54.314;10.022;2023-03-31T02:34:31;33.53;;;8.33;;
20454;SDS011;10386;54.314;10.022;2023-03-31T02:36:58;34.67;;;8.17;;
20454;SDS011;10386;54.314;10.022;2023-03-31T02:39:26;38.40;;;8.83;;
20454;SDS011;10386;54.314;10.022;2023-03-31T02:41:57;36.07;;;8.43;;
20454;SDS011;10386;54.314;10.022;2023-03-31T02:44:27;34.30;;;8.30;;
20454;SDS011;10386;54.314;10.022;2023-03-31T02:46:54;39.03;;;8.20;;
20454;SDS011;10386;54.314;10.022;2023-03-31T02:49:21;32.83;;;7.43;;
20454;SDS011;10386;54.314;10.022;2023-03-31T03:00:34;39.80;;;7.33;;
20454;SDS011;10386;54.314;10.022;2023-03-31T03:03:21;34.50;;;6.93;;
20454;SDS011;10386;54.314;10.022;2023-03-31T03:05:57;35.67;;;8.50;;
20454;SDS011;10386;54.314;10.022;2023-03-31T03:14:27;38.30;;;8.27;;
20454;SDS011;10386;54.314;10.022;2023-03-31T03:17:49;41.63;;;7.23;;
20454;SDS011;10386;54.314;10.022;2023-03-31T03:20:00;36.60;;;7.53;;
20454;SDS011;10386;54.314;10.022;2023-03-31T03:22:33;31.67;;;6.67;;
20454;SDS011;10386;54.314;10.022;2023-03-31T03:25:01;31.40;;;7.00;;
20454;SDS011;10386;54.314;10.022;2023-03-31T03:27:27;28.27;;;6.10;;
20454;SDS011;10386;54.314;10.022;2023-03-31T03:29:54;44.20;;;6.97;;
20454;SDS011;10386;54.314;10.022;2023-03-31T03:32:21;37.17;;;6.37;;
20454;SDS011;10386;54.314;10.022;2023-03-31T03:34:48;38.70;;;7.30;;
20454;SDS011;10386;54.314;10.022;2023-03-31T03:37:15;33.33;;;6.80;;
20454;SDS011;10386;54.314;10.022;2023-03-31T03:39:41;42.10;;;6.73;;
20454;SDS011;10386;54.314;10.022;2023-03-31T03:42:08;34.83;;;6.67;;
20454;SDS011;10386;54.314;10.022;2023-03-31T03:44:35;33.93;;;7.13;;
20454;SDS011;10386;54.314;10.022;2023-03-31T03:47:01;41.17;;;7.80;;
20454;SDS011;10386;54.314;10.022;2023-03-31T03:49:28;42.27;;;7.30;;
20454;SDS011;10386;54.314;10.022;2023-03-31T03:51:55;29.63;;;7.50;;
20454;SDS011;10386;54.314;10.022;2023-03-31T03:54:22;28.53;;;7.03;;
20454;SDS011;10386;54.314;10.022;2023-03-31T03:56:48;32.53;;;7.67;;
20454;SDS011;10386;54.314;10.022;2023-03-31T03:59:15;33.07;;;7.43;;
20454;SDS011;10386;54.314;10.022;2023-03-31T04:01:42;34.87;;;7.03;;
20454;SDS011;10386;54.314;10.022;2023-03-31T04:04:09;38.53;;;7.80;;
20454;SDS011;10386;54.314;10.022;2023-03-31T04:06:35;36.03;;;7.13;;
20454;SDS011;10386;54.314;10.022;2023-03-31T04:09:03;43.10;;;7.73;;
20454;SDS011;10386;54.314;10.022;2023-03-31T04:11:30;36.80;;;6.80;;
20454;SDS011;10386;54.314;10.022;2023-03-31T04:13:58;28.50;;;7.10;;
20454;SDS011;10386;54.314;10.022;2023-03-31T04:16:24;38.63;;;7.70;;
20454;SDS011;10386;54.314;10.022;2023-03-31T04:18:51;41.53;;;6.70;;
20454;SDS011;10386;54.314;10.022;2023-03-31T04:21:22;39.50;;;6.73;;
20454;SDS011;10386;54.314;10.022;2023-03-31T04:23:50;29.97;;;6.43;;
20454;SDS011;10386;54.314;10.022;2023-03-31T04:26:25;33.50;;;7.00;;
20454;SDS011;10386;54.314;10.022;2023-03-31T04:28:56;29.40;;;7.43;;
20454;SDS011;10386;54.314;10.022;2023-03-31T04:31:26;34.50;;;7.60;;
20454;SDS011;10386;54.314;10.022;2023-03-31T04:33:56;32.67;;;6.80;;
20454;SDS011;10386;54.314;10.022;2023-03-31T04:36:28;28.60;;;6.70;;
20454;SDS011;10386;54.314;10.022;2023-03-31T04:38:56;37.17;;;6.40;;
20454;SDS011;10386;54.314;10.022;2023-03-31T04:41:23;36.17;;;6.70;;
20454;SDS011;10386;54.314;10.022;2023-03-31T04:43:53;39.63;;;7.00;;
20454;SDS011;10386;54.314;10.022;2023-03-31T04:46:20;42.10;;;7.20;;
20454;SDS011;10386;54.314;10.022;2023-03-31T04:48:47;33.77;;;6.73;;
20454;SDS011;10386;54.314;10.022;2023-03-31T04:51:14;33.10;;;6.97;;
20454;SDS011;10386;54.314;10.022;2023-03-31T04:53:41;54.27;;;7.60;;
20454;SDS011;10386;54.314;10.022;2023-03-31T04:56:08;35.37;;;6.70;;
20454;SDS011;10386;54.314;10.022;2023-03-31T04:58:35;28.40;;;5.80;;
20454;SDS011;10386;54.314;10.022;2023-03-31T05:01:02;33.20;;;6.50;;
20454;SDS011;10386;54.314;10.022;2023-03-31T05:03:31;31.90;;;6.63;;
20454;SDS011;10386;54.314;10.022;2023-03-31T05:05:59;37.23;;;7.63;;
20454;SDS011;10386;54.314;10.022;2023-03-31T05:08:26;26.73;;;6.20;;
20454;SDS011;10386;54.314;10.022;2023-03-31T05:10:53;38.10;;;6.40;;
20454;SDS011;10386;54.314;10.022;2023-03-31T05:13:19;31.03;;;5.90;;
20454;SDS011;10386;54.314;10.022;2023-03-31T05:15:46;38.87;;;5.97;;
20454;SDS011;10386;54.314;10.022;2023-03-31T05:18:16;35.20;;;6.83;;
20454;SDS011;10386;54.314;10.022;2023-03-31T05:20:43;26.20;;;5.57;;
20454;SDS011;10386;54.314;10.022;2023-03-31T05:23:10;31.10;;;6.20;;
20454;SDS011;10386;54.314;10.022;2023-03-31T05:25:37;44.00;;;5.40;;
20454;SDS011;10386;54.314;10.022;2023-03-31T05:28:03;25.90;;;6.30;;
20454;SDS011;10386;54.314;10.022;2023-03-31T05:30:31;31.43;;;5.83;;
20454;SDS011;10386;54.314;10.022;2023-03-31T05:32:58;28.57;;;6.23;;
20454;SDS011;10386;54.314;10.022;2023-03-31T05:35:25;34.47;;;6.50;;
20454;SDS011;10386;54.314;10.022;2023-03-31T05:37:51;43.33;;;7.43;;
20454;SDS011;10386;54.314;10.022;2023-03-31T05:40:18;35.93;;;6.73;;
20454;SDS011;10386;54.314;10.022;2023-03-31T05:42:45;36.20;;;7.07;;
20454;SDS011;10386;54.314;10.022;2023-03-31T05:45:12;36.37;;;6.17;;
20454;SDS011;10386;54.314;10.022;2023-03-31T05:47:39;31.80;;;6.67;;
20454;SDS011;10386;54.314;10.022;2023-03-31T05:50:06;35.73;;;5.97;;
20454;SDS011;10386;54.314;10.022;2023-03-31T05:52:34;39.47;;;6.30;;
20454;SDS011;10386;54.314;10.022;2023-03-31T05:55:01;29.57;;;6.00;;
20454;SDS011;10386;54.314;10.022;2023-03-31T05:57:29;44.50;;;6.50;;
20454;SDS011;10386;54.314;10.022;2023-03-31T05:59:56;44.93;;;5.93;;
20454;SDS011;10386;54.314;10.022;2023-03-31T06:02:23;48.33;;;5.77;;
20454;SDS011;10386;54.314;10.022;2023-03-31T06:04:50;37.10;;;5.70;;
20454;SDS011;10386;54.314;10.022;2023-03-31T06:07:17;26.57;;;6.13;;
20454;SDS011;10386;54.314;10.022;2023-03-31T06:09:44;34.63;;;6.37;;
20454;SDS011;10386;54.314;10.022;2023-03-31T06:12:11;41.50;;;6.00;;
20454;SDS011;10386;54.314;10.022;2023-03-31T06:14:38;23.67;;;5.47;;
20454;SDS011;10386;54.314;10.022;2023-03-31T06:17:05;28.47;;;6.33;;
20454;SDS011;10386;54.314;10.022;2023-03-31T06:19:32;32.33;;;6.17;;
20454;SDS011;10386;54.314;10.022;2023-03-31T06:21:59;31.57;;;6.20;;
20454;SDS011;10386;54.314;10.022;2023-03-31T06:24:26;30.20;;;5.93;;
20454;SDS011;10386;54.314;10.022;2023-03-31T06:26:53;32.40;;;6.00;;
20454;SDS011;10386;54.314;10.022;2023-03-31T06:29:20;35.00;;;5.13;;
20454;SDS011;10386;54.314;10.022;2023-03-31T06:31:47;33.50;;;6.10;;
20454;SDS011;10386;54.314;10.022;2023-03-31T06:34:14;29.43;;;5.50;;
20454;SDS011;10386;54.314;10.022;2023-03-31T06:36:40;27.73;;;6.00;;
20454;SDS011;10386;54.314;10.022;2023-03-31T06:39:07;24.13;;;5.97;;
20454;SDS011;10386;54.314;10.022;2023-03-31T06:41:34;30.77;;;5.70;;
20454;SDS011;10386;54.314;10.022;2023-03-31T06:44:00;25.90;;;6.27;;
20454;SDS011;10386;54.314;10.022;2023-03-31T06:46:27;31.60;;;5.47;;
20454;SDS011;10386;54.314;10.022;2023-03-31T06:48:54;28.60;;;6.23;;
20454;SDS011;10386;54.314;10.022;2023-03-31T06:51:21;24.17;;;4.83;;
20454;SDS011;10386;54.314;10.022;2023-03-31T06:53:47;28.63;;;5.80;;
20454;SDS011;10386;54.314;10.022;2023-03-31T06:56:14;31.83;;;5.83;;
20454;SDS011;10386;54.314;10.022;2023-03-31T06:58:41;36.30;;;6.23;;
20454;SDS011;10386;54.314;10.022;2023-03-31T07:01:08;28.80;;;5.90;;
20454;SDS011;10386;54.314;10.022;2023-03-31T07:03:37;39.07;;;6.13;;
20454;SDS011;10386;54.314;10.022;2023-03-31T07:06:03;24.60;;;5.20;;
20454;SDS011;10386;54.314;10.022;2023-03-31T07:08:30;29.27;;;6.13;;
20454;SDS011;10386;54.314;10.022;2023-03-31T07:10:58;22.33;;;5.33;;
20454;SDS011;10386;54.314;10.022;2023-03-31T07:13:26;30.40;;;5.90;;
20454;SDS011;10386;54.314;10.022;2023-03-31T07:15:54;28.87;;;4.87;;
20454;SDS011;10386;54.314;10.022;2023-03-31T07:18:22;29.20;;;5.97;;
20454;SDS011;10386;54.314;10.022;2023-03-31T07:21:00;28.20;;;5.57;;
20454;SDS011;10386;54.314;10.022;2023-03-31T07:23:27;28.13;;;5.87;;
20454;SDS011;10386;54.314;10.022;2023-03-31T07:25:54;28.17;;;5.73;;
20454;SDS011;10386;54.314;10.022;2023-03-31T07:28:20;26.73;;;6.10;;
20454;SDS011;10386;54.314;10.022;2023-03-31T07:30:47;19.47;;;5.47;;
20454;SDS011;10386;54.314;10.022;2023-03-31T07:33:14;20.80;;;5.60;;
20454;SDS011;10386;54.314;10.022;2023-03-31T07:35:41;31.23;;;6.47;;
20454;SDS011;10386;54.314;10.022;2023-03-31T07:38:08;25.53;;;6.27;;
20454;SDS011;10386;54.314;10.022;2023-03-31T07:40:36;24.50;;;5.93;;
20454;SDS011;10386;54.314;10.022;2023-03-31T07:43:03;30.57;;;6.13;;
20454;SDS011;10386;54.314;10.022;2023-03-31T07:45:31;19.43;;;5.30;;
20454;SDS011;10386;54.314;10.022;2023-03-31T07:47:58;20.47;;;6.07;;
20454;SDS011;10386;54.314;10.022;2023-03-31T07:50:25;25.57;;;6.60;;
20454;SDS011;10386;54.314;10.022;2023-03-31T07:52:52;34.03;;;6.57;;
20454;SDS011;10386;54.314;10.022;2023-03-31T07:55:26;27.33;;;6.73;;
20454;SDS011;10386;54.314;10.022;2023-03-31T07:57:53;22.50;;;6.47;;
20454;SDS011;10386;54.314;10.022;2023-03-31T08:00:20;24.67;;;6.77;;
20454;SDS011;10386;54.314;10.022;2023-03-31T08:02:47;30.50;;;7.23;;
20454;SDS011;10386;54.314;10.022;2023-03-31T08:05:14;23.43;;;6.17;;
20454;SDS011;10386;54.314;10.022;2023-03-31T08:07:44;30.67;;;8.30;;
20454;SDS011;10386;54.314;10.022;2023-03-31T08:10:14;22.97;;;6.77;;
20454;SDS011;10386;54.314;10.022;2023-03-31T08:12:49;24.00;;;7.33;;
20454;SDS011;10386;54.314;10.022;2023-03-31T08:15:15;19.77;;;6.77;;
20454;SDS011;10386;54.314;10.022;2023-03-31T08:17:42;31.47;;;6.90;;
20454;SDS011;10386;54.314;10.022;2023-03-31T08:20:10;25.10;;;6.63;;
20454;SDS011;10386;54.314;10.022;2023-03-31T08:22:37;22.83;;;6.87;;
20454;SDS011;10386;54.314;10.022;2023-03-31T08:25:06;26.97;;;7.27;;
20454;SDS011;10386;54.314;10.022;2023-03-31T08:27:34;31.87;;;7.27;;
20454;SDS011;10386;54.314;10.022;2023-03-31T08:30:01;22.97;;;7.07;;
20454;SDS011;10386;54.314;10.022;2023-03-31T08:32:30;22.37;;;6.97;;
20454;SDS011;10386;54.314;10.022;2023-03-31T08:34:57;23.83;;;6.93;;
20454;SDS011;10386;54.314;10.022;2023-03-31T08:37:25;25.43;;;7.67;;
20454;SDS011;10386;54.314;10.022;2023-03-31T08:39:53;25.87;;;7.70;;
20454;SDS011;10386;54.314;10.022;2023-03-31T08:42:55;24.63;;;7.40;;
20454;SDS011;10386;54.314;10.022;2023-03-31T08:48:18;25.03;;;7.87;;
20454;SDS011;10386;54.314;10.022;2023-03-31T08:50:55;20.13;;;7.80;;
20454;SDS011;10386;54.314;10.022;2023-03-31T08:53:33;23.90;;;8.07;;
20454;SDS011;10386;54.314;10.022;2023-03-31T08:56:06;25.63;;;7.33;;
20454;SDS011;10386;54.314;10.022;2023-03-31T08:58:43;27.03;;;7.80;;
20454;SDS011;10386;54.314;10.022;2023-03-31T09:15:41;27.47;;;8.70;;
20454;SDS011;10386;54.314;10.022;2023-03-31T09:18:25;28.33;;;7.70;;
20454;SDS011;10386;54.314;10.022;2023-03-31T09:21:11;30.00;;;7.20;;
20454;SDS011;10386;54.314;10.022;2023-03-31T09:23:39;29.80;;;7.43;;
20454;SDS011;10386;54.314;10.022;2023-03-31T09:26:16;21.87;;;7.87;;
20454;SDS011;10386;54.314;10.022;2023-03-31T09:28:49;23.90;;;8.07;;
20454;SDS011;10386;54.314;10.022;2023-03-31T09:31:18;27.07;;;8.03;;
20454;SDS011;10386;54.314;10.022;2023-03-31T09:33:47;25.37;;;8.20;;
20454;SDS011;10386;54.314;10.022;2023-03-31T09:36:19;21.03;;;7.80;;
20454;SDS011;10386;54.314;10.022;2023-03-31T09:38:50;26.87;;;9.10;;
20454;SDS011;10386;54.314;10.022;2023-03-31T09:41:17;23.67;;;7.83;;
20454;SDS011;10386;54.314;10.022;2023-03-31T09:43:47;20.37;;;7.60;;
20454;SDS011;10386;54.314;10.022;2023-03-31T09:46:16;27.33;;;8.50;;
20454;SDS011;10386;54.314;10.022;2023-03-31T09:48:49;20.37;;;8.30;;
20454;SDS011;10386;54.314;10.022;2023-03-31T09:51:22;28.17;;;9.00;;
20454;SDS011;10386;54.314;10.022;2023-03-31T09:56:54;27.30;;;9.43;;
20454;SDS011;10386;54.314;10.022;2023-03-31T09:59:31;22.80;;;9.33;;
20454;SDS011;10386;54.314;10.022;2023-03-31T10:02:00;26.10;;;9.70;;
20454;SDS011;10386;54.314;10.022;2023-03-31T10:04:31;28.50;;;9.10;;
20454;SDS011;10386;54.314;10.022;2023-03-31T10:07:00;23.73;;;9.47;;
20454;SDS011;10386;54.314;10.022;2023-03-31T10:09:31;26.10;;;9.93;;
20454;SDS011;10386;54.314;10.022;2023-03-31T10:12:03;28.83;;;10.27;;
20454;SDS011;10386;54.314;10.022;2023-03-31T10:14:37;29.30;;;9.77;;
20454;SDS011;10386;54.314;10.022;2023-03-31T10:17:12;26.87;;;10.00;;
20454;SDS011;10386;54.314;10.022;2023-03-31T10:19:58;21.20;;;9.03;;
20454;SDS011;10386;54.314;10.022;2023-03-31T10:22:31;23.67;;;10.20;;
20454;SDS011;10386;54.314;10.022;2023-03-31T10:27:54;19.00;;;9.20;;
20454;SDS011;10386;54.314;10.022;2023-03-31T10:30:23;21.63;;;8.17;;
20454;SDS011;10386;54.314;10.022;2023-03-31T10:33:04;19.53;;;7.77;;
20454;SDS011;10386;54.314;10.022;2023-03-31T10:35:48;22.93;;;8.23;;
20454;SDS011;10386;54.314;10.022;2023-03-31T10:38:28;14.93;;;7.07;;
20454;SDS011;10386;54.314;10.022;2023-03-31T10:40:58;13.27;;;4.70;;
20454;SDS011;10386;54.314;10.022;2023-03-31T10:45:59;9.57;;;4.10;;
20454;SDS011;10386;54.314;10.022;2023-03-31T10:48:27;11.70;;;4.57;;
20454;SDS011;10386;54.314;10.022;2023-03-31T10:51:14;7.77;;;4.30;;
20454;SDS011;10386;54.314;10.022;2023-03-31T10:53:50;9.37;;;4.60;;
20454;SDS011;10386;54.314;10.022;2023-03-31T10:56:23;7.73;;;5.07;;
20454;SDS011;10386;54.314;10.022;2023-03-31T11:04:48;14.97;;;7.23;;
20454;SDS011;10386;54.314;10.022;2023-03-31T11:15:49;16.07;;;7.70;;
20454;SDS011;10386;54.314;10.022;2023-03-31T11:21:25;12.00;;;6.77;;
20454;SDS011;10386;54.314;10.022;2023-03-31T11:29:31;14.77;;;6.80;;
20454;SDS011;10386;54.314;10.022;2023-03-31T11:37:34;9.47;;;6.03;;
20454;SDS011;10386;54.314;10.022;2023-03-31T11:51:15;7.23;;;4.30;;
20454;SDS011;10386;54.314;10.022;2023-03-31T11:53:50;6.10;;;3.60;;
20454;SDS011;10386;54.314;10.022;2023-03-31T11:56:19;5.30;;;3.17;;
20454;SDS011;10386;54.314;10.022;2023-03-31T11:58:53;2.83;;;2.47;;
20454;SDS011;10386;54.314;10.022;2023-03-31T12:01:27;4.67;;;3.00;;
20454;SDS011;10386;54.314;10.022;2023-03-31T12:06:43;4.00;;;2.60;;
20454;SDS011;10386;54.314;10.022;2023-03-31T12:09:14;3.43;;;2.67;;
20454;SDS011;10386;54.314;10.022;2023-03-31T12:11:52;6.07;;;2.80;;
20454;SDS011;10386;54.314;10.022;2023-03-31T12:19:59;5.37;;;3.07;;
20454;SDS011;10386;54.314;10.022;2023-03-31T12:22:36;5.47;;;2.90;;
20454;SDS011;10386;54.314;10.022;2023-03-31T12:25:12;3.93;;;2.87;;
20454;SDS011;10386;54.314;10.022;2023-03-31T12:27:44;3.33;;;2.87;;
20454;SDS011;10386;54.314;10.022;2023-03-31T12:30:34;5.83;;;3.07;;
20454;SDS011;10386;54.314;10.022;2023-03-31T12:41:27;4.40;;;3.20;;
20454;SDS011;10386;54.314;10.022;2023-03-31T12:44:07;7.53;;;3.03;;
20454;SDS011;10386;54.314;10.022;2023-03-31T12:52:17;3.87;;;2.70;;
20454;SDS011;10386;54.314;10.022;2023-03-31T13:03:48;3.90;;;2.20;;
20454;SDS011;10386;54.314;10.022;2023-03-31T13:08:57;3.07;;;2.27;;
20454;SDS011;10386;54.314;10.022;2023-03-31T13:16:45;4.93;;;2.20;;
20454;SDS011;10386;54.314;10.022;2023-03-31T13:22:00;3.37;;;2.50;;
20454;SDS011;10386;54.314;10.022;2023-03-31T13:24:29;2.63;;;2.40;;
20454;SDS011;10386;54.314;10.022;2023-03-31T13:26:58;4.27;;;2.30;;
20454;SDS011;10386;54.314;10.022;2023-03-31T13:29:45;2.97;;;2.47;;
20454;SDS011;10386;54.314;10.022;2023-03-31T13:32:21;4.43;;;2.33;;
20454;SDS011;10386;54.314;10.022;2023-03-31T13:35:02;2.43;;;2.23;;
20454;SDS011;10386;54.314;10.022;2023-03-31T13:43:17;3.27;;;2.40;;
20454;SDS011;10386;54.314;10.022;2023-03-31T13:53:47;3.13;;;2.53;;
20454;SDS011;10386;54.314;10.022;2023-03-31T14:02:11;2.27;;;2.17;;
20454;SDS011;10386;54.314;10.022;2023-03-31T14:07:14;3.73;;;2.50;;
20454;SDS011;10386;54.314;10.022;2023-03-31T14:09:45;4.90;;;2.50;;
20454;SDS011;10386;54.314;10.022;2023-03-31T14:12:19;3.83;;;2.20;;
20454;SDS011;10386;54.314;10.022;2023-03-31T14:14:52;2.83;;;2.17;;
20454;SDS011;10386;54.314;10.022;2023-03-31T14:17:21;2.57;;;2.37;;
20454;SDS011;10386;54.314;10.022;2023-03-31T14:19:54;2.63;;;2.43;;
20454;SDS011;10386;54.314;10.022;2023-03-31T14:27:56;8.40;;;2.87;;
20454;SDS011;10386;54.314;10.022;2023-03-31T14:30:41;4.30;;;2.53;;
20454;SDS011;10386;54.314;10.022;2023-03-31T14:33:25;4.37;;;2.50;;
20454;SDS011;10386;54.314;10.022;2023-03-31T14:35:54;4.27;;;2.90;;
20454;SDS011;10386;54.314;10.022;2023-03-31T14:38:27;4.93;;;2.73;;
20454;SDS011;10386;54.314;10.022;2023-03-31T14:40:55;4.17;;;2.83;;
20454;SDS011;10386;54.314;10.022;2023-03-31T14:43:27;4.10;;;2.80;;
20454;SDS011;10386;54.314;10.022;2023-03-31T14:46:05;5.40;;;3.00;;
20454;SDS011;10386;54.314;10.022;2023-03-31T14:48:34;4.67;;;2.80;;
20454;SDS011;10386;54.314;10.022;2023-03-31T14:51:10;3.77;;;3.47;;
20454;SDS011;10386;54.314;10.022;2023-03-31T14:53:40;5.43;;;3.00;;
20454;SDS011;10386;54.314;10.022;2023-03-31T14:56:11;3.70;;;3.40;;
20454;SDS011;10386;54.314;10.022;2023-03-31T14:58:47;5.33;;;3.80;;
20454;SDS011;10386;54.314;10.022;2023-03-31T15:01:18;4.57;;;3.93;;
20454;SDS011;10386;54.314;10.022;2023-03-31T15:03:49;5.40;;;3.63;;
20454;SDS011;10386;54.314;10.022;2023-03-31T15:06:18;4.00;;;3.60;;
20454;SDS011;10386;54.314;10.022;2023-03-31T15:08:45;7.83;;;3.90;;
20454;SDS011;10386;54.314;10.022;2023-03-31T15:11:16;4.53;;;3.20;;
20454;SDS011;10386;54.314;10.022;2023-03-31T15:13:48;3.80;;;3.30;;
20454;SDS011;10386;54.314;10.022;2023-03-31T15:19:03;4.50;;;3.87;;
20454;SDS011;10386;54.314;10.022;2023-03-31T15:21:36;5.03;;;3.57;;
20454;SDS011;10386;54.314;10.022;2023-03-31T15:24:04;3.63;;;3.07;;
20454;SDS011;10386;54.314;10.022;2023-03-31T15:26:32;6.90;;;3.47;;
20454;SDS011;10386;54.314;10.022;2023-03-31T15:29:18;6.37;;;3.70;;
20454;SDS011;10386;54.314;10.022;2023-03-31T15:31:48;16.53;;;8.17;;
20454;SDS011;10386;54.314;10.022;2023-03-31T15:34:20;6.93;;;4.67;;
20454;SDS011;10386;54.314;10.022;2023-03-31T15:36:53;8.37;;;4.53;;
20454;SDS011;10386;54.314;10.022;2023-03-31T15:39:25;11.33;;;7.53;;
20454;SDS011;10386;54.314;10.022;2023-03-31T15:41:55;6.80;;;4.10;;
20454;SDS011;10386;54.314;10.022;2023-03-31T15:44:43;3.77;;;2.90;;
20454;SDS011;10386;54.314;10.022;2023-03-31T15:47:19;3.23;;;2.93;;
20454;SDS011;10386;54.314;10.022;2023-03-31T15:49:52;2.60;;;2.40;;
20454;SDS011;10386;54.314;10.022;2023-03-31T15:52:47;2.60;;;1.80;;
20454;SDS011;10386;54.314;10.022;2023-03-31T15:55:25;2.23;;;2.03;;
20454;SDS011;10386;54.314;10.022;2023-03-31T15:57:57;2.00;;;1.90;;
20454;SDS011;10386;54.314;10.022;2023-03-31T16:02:59;4.33;;;2.73;;
20454;SDS011;10386;54.314;10.022;2023-03-31T16:05:45;5.47;;;3.47;;
20454;SDS011;10386;54.314;10.022;2023-03-31T16:08:27;4.40;;;3.57;;
20454;SDS011;10386;54.314;10.022;2023-03-31T16:11:02;5.33;;;4.20;;
20454;SDS011;10386;54.314;10.022;2023-03-31T16:13:33;4.57;;;3.67;;
20454;SDS011;10386;54.314;10.022;2023-03-31T16:16:09;5.23;;;3.87;;
20454;SDS011;10386;54.314;10.022;2023-03-31T16:18:48;3.63;;;3.37;;
20454;SDS011;10386;54.314;10.022;2023-03-31T16:21:22;4.07;;;2.63;;
20454;SDS011;10386;54.314;10.022;2023-03-31T16:23:53;4.27;;;2.83;;
20454;SDS011;10386;54.314;10.022;2023-03-31T16:26:23;6.20;;;2.80;;
20454;SDS011;10386;54.314;10.022;2023-03-31T16:28:54;3.80;;;2.67;;
20454;SDS011;10386;54.314;10.022;2023-03-31T16:31:30;3.20;;;2.90;;
20454;SDS011;10386;54.314;10.022;2023-03-31T16:34:00;5.67;;;2.73;;
20454;SDS011;10386;54.314;10.022;2023-03-31T16:36:28;3.47;;;2.40;;
20454;SDS011;10386;54.314;10.022;2023-03-31T16:38:54;3.23;;;2.27;;
20454;SDS011;10386;54.314;10.022;2023-03-31T16:41:26;2.93;;;2.57;;
20454;SDS011;10386;54.314;10.022;2023-03-31T16:43:54;4.60;;;2.93;;
20454;SDS011;10386;54.314;10.022;2023-03-31T16:46:21;2.93;;;2.73;;
20454;SDS011;10386;54.314;10.022;2023-03-31T16:48:49;2.93;;;2.70;;
20454;SDS011;10386;54.314;10.022;2023-03-31T16:51:17;6.30;;;3.10;;
20454;SDS011;10386;54.314;10.022;2023-03-31T16:53:44;4.40;;;3.03;;
20454;SDS011;10386;54.314;10.022;2023-03-31T16:56:18;3.70;;;3.37;;
20454;SDS011;10386;54.314;10.022;2023-03-31T16:58:44;4.10;;;3.13;;
20454;SDS011;10386;54.314;10.022;2023-03-31T17:01:15;5.53;;;3.90;;
20454;SDS011;10386;54.314;10.022;2023-03-31T17:03:42;5.37;;;4.10;;
20454;SDS011;10386;54.314;10.022;2023-03-31T17:06:12;5.03;;;3.70;;
20454;SDS011;10386;54.314;10.022;2023-03-31T17:08:40;5.27;;;3.47;;
20454;SDS011;10386;54.314;10.022;2023-03-31T17:11:08;5.17;;;3.80;;
20454;SDS011;10386;54.314;10.022;2023-03-31T17:13:37;3.53;;;3.23;;
20454;SDS011;10386;54.314;10.022;2023-03-31T17:16:06;4.70;;;3.70;;
20454;SDS011;10386;54.314;10.022;2023-03-31T17:18:44;5.03;;;3.33;;
20454;SDS011;10386;54.314;10.022;2023-03-31T17:21:13;4.70;;;3.17;;
20454;SDS011;10386;54.314;10.022;2023-03-31T17:23:41;3.87;;;3.50;;
20454;SDS011;10386;54.314;10.022;2023-03-31T17:26:08;6.37;;;3.60;;
20454;SDS011;10386;54.314;10.022;2023-03-31T17:28:39;6.50;;;3.67;;
20454;SDS011;10386;54.314;10.022;2023-03-31T17:31:10;4.13;;;3.50;;
20454;SDS011;10386;54.314;10.022;2023-03-31T17:33:39;3.70;;;3.03;;
20454;SDS011;10386;54.314;10.022;2023-03-31T17:36:07;5.00;;;3.23;;
20454;SDS011;10386;54.314;10.022;2023-03-31T17:38:35;4.60;;;3.53;;
20454;SDS011;10386;54.314;10.022;2023-03-31T17:41:08;6.27;;;3.87;;
20454;SDS011;10386;54.314;10.022;2023-03-31T17:43:38;7.70;;;4.03;;
20454;SDS011;10386;54.314;10.022;2023-03-31T17:46:08;5.83;;;3.97;;
20454;SDS011;10386;54.314;10.022;2023-03-31T17:48:42;4.63;;;3.90;;
20454;SDS011;10386;54.314;10.022;2023-03-31T17:51:14;5.60;;;4.70;;